createdAt,value
2023-03-17T00:01:55.053Z,0.80
2023-03-17T00:04:26.256Z,0.80
2023-03-17T00:06:54.583Z,1.00
2023-03-17T00:09:22.326Z,0.80
2023-03-17T00:16:50.024Z,1.00
2023-03-17T00:19:37.165Z,1.00
2023-03-17T00:24:33.612Z,1.30
2023-03-17T00:31:57.582Z,1.10
2023-03-17T00:34:24.611Z,1.00
2023-03-17T00:46:41.494Z,1.60
2023-03-17T00:54:11.919Z,1.30
2023-03-17T00:56:40.744Z,1.50
2023-03-17T00:59:26.018Z,1.10
2023-03-17T01:01:52.980Z,1.20
2023-03-17T01:04:20.063Z,1.60
2023-03-17T01:06:48.226Z,1.40
2023-03-17T01:09:18.578Z,1.30
2023-03-17T01:11:45.685Z,1.40
2023-03-17T01:14:12.842Z,1.30
2023-03-17T01:16:39.805Z,1.00
2023-03-17T01:19:06.928Z,2.20
2023-03-17T01:21:33.826Z,1.20
2023-03-17T01:24:00.669Z,1.30
2023-03-17T01:28:54.817Z,1.20
2023-03-17T01:33:51.336Z,1.10
2023-03-17T01:36:18.324Z,0.70
2023-03-17T01:38:48.581Z,0.70
2023-03-17T01:41:15.459Z,0.90
2023-03-17T01:43:42.621Z,0.90
2023-03-17T01:46:29.541Z,0.80
2023-03-17T01:48:56.220Z,0.90
2023-03-17T01:51:47.188Z,0.90
2023-03-17T01:54:24.257Z,0.60
2023-03-17T01:56:53.696Z,0.70
2023-03-17T01:59:25.872Z,1.00
2023-03-17T02:02:02.349Z,0.80
2023-03-17T02:04:29.711Z,0.70
2023-03-17T02:06:58.809Z,0.40
2023-03-17T02:09:27.684Z,-0.10
2023-03-17T02:11:55.667Z,0.80
2023-03-17T02:14:22.514Z,0.10
2023-03-17T02:16:49.464Z,-0.10
2023-03-17T02:19:17.123Z,-0.30
2023-03-17T02:21:56.868Z,-0.10
2023-03-17T02:24:27.532Z,0.10
2023-03-17T02:26:56.106Z,-0.20
2023-03-17T02:29:23.846Z,-0.20
2023-03-17T02:31:50.981Z,-0.50
2023-03-17T02:34:18.303Z,-0.30
2023-03-17T02:39:13.768Z,-0.10
2023-03-17T02:41:40.525Z,0.40
2023-03-17T02:44:07.330Z,0.40
2023-03-17T02:46:34.092Z,0.30
2023-03-17T02:49:02.055Z,0.40
2023-03-17T02:56:24.090Z,0.90
2023-03-17T03:03:45.938Z,0.20
2023-03-17T03:06:13.386Z,0.20
2023-03-17T03:08:40.642Z,0.20
2023-03-17T03:13:34.540Z,0.70
2023-03-17T03:18:28.579Z,1.10
2023-03-17T03:20:55.389Z,0.50
2023-03-17T03:23:22.198Z,0.20
2023-03-17T03:25:49.022Z,-0.10
2023-03-17T03:30:44.713Z,0.00
2023-03-17T03:33:13.344Z,0.00
2023-03-17T03:38:08.355Z,0.40
2023-03-17T03:40:36.945Z,0.40
2023-03-17T03:43:16.313Z,0.20
2023-03-17T03:50:43.002Z,0.50
2023-03-17T04:00:32.305Z,1.20
2023-03-17T04:05:26.790Z,0.50
2023-03-17T04:10:21.854Z,0.60
2023-03-17T04:12:48.589Z,0.60
2023-03-17T04:15:17.220Z,0.60
2023-03-17T04:17:44.465Z,0.80
2023-03-17T04:20:13.162Z,0.50
2023-03-17T04:22:41.793Z,0.40
2023-03-17T04:25:10.685Z,0.40
2023-03-17T04:27:37.947Z,0.40
2023-03-17T04:30:06.178Z,0.40
2023-03-17T04:35:00.678Z,0.60
2023-03-17T04:44:50.341Z,0.50
2023-03-17T04:47:17.232Z,1.20
2023-03-17T04:52:11.571Z,0.20
2023-03-17T04:59:32.859Z,1.20
2023-03-17T05:01:59.756Z,0.80
2023-03-17T05:04:31.767Z,0.70
2023-03-17T05:06:59.657Z,0.80
2023-03-17T05:09:28.729Z,0.70
2023-03-17T05:14:23.687Z,0.60
2023-03-17T05:16:51.154Z,0.80
2023-03-17T05:19:18.508Z,0.80
2023-03-17T05:21:45.707Z,1.30
2023-03-17T05:24:12.647Z,1.00
2023-03-17T05:31:34.571Z,1.00
2023-03-17T05:41:23.680Z,0.80
2023-03-17T05:43:50.749Z,1.20
2023-03-17T05:48:47.364Z,1.10
2023-03-17T05:51:14.601Z,1.20
2023-03-17T05:56:09.384Z,0.70
2023-03-17T05:58:36.606Z,1.10
2023-03-17T06:01:03.450Z,1.30
2023-03-17T06:08:25.234Z,2.20
2023-03-17T06:15:51.836Z,3.60
2023-03-17T06:23:14.238Z,4.30
2023-03-17T06:25:41.635Z,6.10
2023-03-17T06:28:08.887Z,6.60
2023-03-17T06:30:40.381Z,6.90
2023-03-17T06:33:08.271Z,7.60
2023-03-17T06:35:36.299Z,6.70
2023-03-17T06:40:32.139Z,7.30
2023-03-17T06:42:59.556Z,6.70
2023-03-17T06:45:26.851Z,7.90
2023-03-17T06:50:21.433Z,9.90
2023-03-17T06:52:48.256Z,10.40
2023-03-17T07:00:12.686Z,8.90
2023-03-17T07:10:04.246Z,10.10
2023-03-17T07:14:59.086Z,10.70
2023-03-17T07:17:26.167Z,12.00
2023-03-17T07:22:20.517Z,12.90
2023-03-17T07:24:49.241Z,11.30
2023-03-17T07:27:16.972Z,10.80
2023-03-17T07:32:11.402Z,12.40
2023-03-17T07:34:38.265Z,10.80
2023-03-17T07:37:06.996Z,11.20
2023-03-17T07:42:01.557Z,11.90
2023-03-17T07:44:28.941Z,11.40
2023-03-17T07:49:40.033Z,11.60
2023-03-17T07:52:08.603Z,12.90
2023-03-17T07:57:04.574Z,10.90
2023-03-17T07:59:31.767Z,12.60
2023-03-17T08:06:57.266Z,11.90
2023-03-17T08:09:24.385Z,13.80
2023-03-17T08:16:46.022Z,15.00
2023-03-17T08:26:36.264Z,12.60
2023-03-17T08:29:05.151Z,13.20
2023-03-17T08:31:34.138Z,12.60
2023-03-17T08:34:02.701Z,13.90
2023-03-17T08:41:26.958Z,14.70
2023-03-17T08:43:54.915Z,14.40
2023-03-17T08:46:30.095Z,14.30
2023-03-17T08:48:58.155Z,14.50
2023-03-17T08:51:27.235Z,13.40
2023-03-17T08:53:55.071Z,13.30
2023-03-17T08:56:22.749Z,12.80
2023-03-17T08:58:50.777Z,12.40
2023-03-17T09:01:19.109Z,13.90
2023-03-17T09:03:46.817Z,13.10
2023-03-17T09:06:14.401Z,13.40
2023-03-17T09:08:45.161Z,11.30
2023-03-17T09:11:14.919Z,12.80
2023-03-17T09:23:34.496Z,13.00
2023-03-17T09:26:02.323Z,10.40
2023-03-17T09:31:03.761Z,11.30
2023-03-17T09:33:31.099Z,10.90
2023-03-17T09:35:58.027Z,10.50
2023-03-17T09:38:26.428Z,10.80
2023-03-17T09:43:41.794Z,11.60
2023-03-17T09:46:43.788Z,12.10
2023-03-17T09:49:21.168Z,11.70
2023-03-17T09:51:49.503Z,11.10
2023-03-17T09:56:51.388Z,11.50
2023-03-17T09:59:34.929Z,11.50
2023-03-17T10:07:07.034Z,12.60
2023-03-17T10:09:43.101Z,13.50
2023-03-17T10:12:24.793Z,13.60
2023-03-17T10:15:04.635Z,13.90
2023-03-17T10:17:40.767Z,13.70
2023-03-17T10:20:09.190Z,14.20
2023-03-17T10:23:01.111Z,14.10
2023-03-17T10:25:34.011Z,14.20
2023-03-17T10:28:12.388Z,14.20
2023-03-17T10:30:39.837Z,15.10
2023-03-17T10:35:37.574Z,14.50
2023-03-17T10:38:20.303Z,14.40
2023-03-17T10:40:58.287Z,15.00
2023-03-17T10:43:30.554Z,14.90
2023-03-17T10:46:04.013Z,15.60
2023-03-17T10:48:36.101Z,14.60
2023-03-17T10:51:09.919Z,15.40
2023-03-17T10:53:43.031Z,15.40
2023-03-17T10:56:27.442Z,15.70
2023-03-17T10:58:55.598Z,15.60
2023-03-17T11:01:36.594Z,15.40
2023-03-17T11:06:41.486Z,16.80
2023-03-17T11:09:11.069Z,17.00
2023-03-17T11:11:47.627Z,17.30
2023-03-17T11:14:18.689Z,17.90
2023-03-17T11:17:01.638Z,16.30
2023-03-17T11:22:00.159Z,16.60
2023-03-17T11:24:33.629Z,17.10
2023-03-17T11:27:07.212Z,16.60
2023-03-17T11:29:52.583Z,16.80
2023-03-17T11:37:26.412Z,17.90
2023-03-17T11:39:56.573Z,16.10
2023-03-17T11:42:25.966Z,17.40
2023-03-17T11:45:13.190Z,17.10
2023-03-17T11:47:54.948Z,17.80
2023-03-17T11:53:06.525Z,16.60
2023-03-17T11:55:36.394Z,15.60
2023-03-17T11:58:10.609Z,14.60
2023-03-17T12:00:45.881Z,15.00
2023-03-17T12:03:21.665Z,15.10
2023-03-17T12:05:52.492Z,14.50
2023-03-17T12:08:42.280Z,15.50
2023-03-17T12:11:17.198Z,14.70
2023-03-17T12:14:05.226Z,15.20
2023-03-17T12:16:48.125Z,14.70
2023-03-17T12:19:29.882Z,14.80
2023-03-17T12:22:05.698Z,16.30
2023-03-17T12:27:01.918Z,15.40
2023-03-17T12:29:51.609Z,15.70
2023-03-17T12:32:55.695Z,15.70
2023-03-17T12:35:32.228Z,15.70
2023-03-17T12:38:02.789Z,15.50
2023-03-17T12:40:35.871Z,15.00
2023-03-17T12:43:02.794Z,15.00
2023-03-17T12:45:50.858Z,15.30
2023-03-17T12:48:32.964Z,15.10
2023-03-17T12:51:31.432Z,15.30
2023-03-17T12:56:34.681Z,14.70
2023-03-17T12:59:05.808Z,14.70
2023-03-17T13:01:54.351Z,14.40
2023-03-17T13:04:40.997Z,14.20
2023-03-17T13:07:22.194Z,13.40
2023-03-17T13:12:44.515Z,14.20
2023-03-17T13:15:23.589Z,14.70
2023-03-17T13:18:10.803Z,14.10
2023-03-17T13:20:41.925Z,13.50
2023-03-17T13:23:16.071Z,13.70
2023-03-17T13:28:12.327Z,13.50
2023-03-17T13:33:09.795Z,12.30
2023-03-17T13:35:42.959Z,12.40
2023-03-17T13:38:46.776Z,12.20
2023-03-17T13:41:13.594Z,12.20
2023-03-17T13:44:01.737Z,12.40
2023-03-17T13:46:39.195Z,12.00
2023-03-17T13:49:28.591Z,12.30
2023-03-17T13:52:01.694Z,12.60
2023-03-17T13:57:20.312Z,12.10
2023-03-17T14:00:21.124Z,11.80
2023-03-17T14:02:49.971Z,11.60
2023-03-17T14:05:24.937Z,11.40
2023-03-17T14:07:58.841Z,11.20
2023-03-17T14:10:29.124Z,11.20
2023-03-17T14:13:07.089Z,11.30
2023-03-17T14:16:08.100Z,11.30
2023-03-17T14:18:38.886Z,11.40
2023-03-17T14:21:11.736Z,10.90
2023-03-17T14:23:38.657Z,10.90
2023-03-17T14:28:35.588Z,10.60
2023-03-17T14:31:05.550Z,10.10
2023-03-17T14:33:38.348Z,9.90
2023-03-17T14:36:08.883Z,9.90
2023-03-17T14:38:46.085Z,10.40
2023-03-17T14:41:22.712Z,10.40
2023-03-17T14:43:52.328Z,10.30
2023-03-17T14:46:30.044Z,10.30
2023-03-17T14:49:20.972Z,10.10
2023-03-17T14:51:57.299Z,9.80
2023-03-17T14:54:28.782Z,9.90
2023-03-17T14:57:02.148Z,10.20
2023-03-17T14:59:38.814Z,10.40
2023-03-17T15:02:21.776Z,10.30
2023-03-17T15:05:03.214Z,10.50
2023-03-17T15:07:39.932Z,10.30
2023-03-17T15:10:17.585Z,9.70
2023-03-17T15:12:48.905Z,9.70
2023-03-17T15:15:32.525Z,9.80
2023-03-17T15:18:03.836Z,10.20
2023-03-17T15:23:03.230Z,10.60
2023-03-17T15:25:33.149Z,10.40
2023-03-17T15:28:00.277Z,10.60
2023-03-17T15:30:37.367Z,10.60
2023-03-17T15:33:16.940Z,10.00
2023-03-17T15:38:12.219Z,10.20
2023-03-17T15:50:31.464Z,8.90
2023-03-17T15:55:31.411Z,8.70
2023-03-17T15:57:59.407Z,8.50
2023-03-17T16:00:29.712Z,8.30
2023-03-17T16:03:02.193Z,8.50
2023-03-17T16:05:34.379Z,7.90
2023-03-17T16:15:28.402Z,7.80
2023-03-17T16:43:33.173Z,7.20
2023-03-17T16:55:55.144Z,7.00
2023-03-17T17:18:11.396Z,6.60
2023-03-17T17:28:05.676Z,6.50
2023-03-17T17:38:01.052Z,6.20
2023-03-17T17:40:28.830Z,6.30
2023-03-17T17:42:55.710Z,6.30
2023-03-17T17:45:22.579Z,5.90
2023-03-17T17:50:24.394Z,6.00
2023-03-17T17:52:51.386Z,5.90
2023-03-17T17:55:18.615Z,5.80
2023-03-17T17:57:45.623Z,5.70
2023-03-17T18:00:15.458Z,5.60
2023-03-17T18:05:10.206Z,6.30
2023-03-17T18:07:37.086Z,6.00
2023-03-17T18:10:05.230Z,5.60
2023-03-17T18:17:27.330Z,5.50
2023-03-17T18:19:55.010Z,5.60
2023-03-17T18:22:22.644Z,5.40
2023-03-17T18:24:49.982Z,5.70
2023-03-17T18:32:12.628Z,5.30
2023-03-17T18:34:45.956Z,5.00
2023-03-17T18:37:13.951Z,5.30
2023-03-17T18:44:36.903Z,5.30
2023-03-17T18:47:04.044Z,5.20
2023-03-17T18:54:28.070Z,5.10
2023-03-17T18:56:55.989Z,5.10
2023-03-17T18:59:22.901Z,5.20
2023-03-17T19:01:49.762Z,5.20
2023-03-17T19:06:43.892Z,4.80
2023-03-17T19:09:11.108Z,4.80
2023-03-17T19:11:39.427Z,5.00
2023-03-17T19:14:08.380Z,4.90
2023-03-17T19:16:35.851Z,4.90
2023-03-17T19:19:03.180Z,4.80
2023-03-17T19:21:31.052Z,5.00
2023-03-17T19:24:00.687Z,4.90
2023-03-17T19:26:27.772Z,4.50
2023-03-17T19:28:56.330Z,4.70
2023-03-17T19:33:52.041Z,4.50
2023-03-17T19:46:11.979Z,4.60
2023-03-17T19:51:08.084Z,4.50
2023-03-17T19:53:35.276Z,4.30
2023-03-17T20:00:56.831Z,4.10
2023-03-17T20:03:26.067Z,4.30
2023-03-17T20:10:55.723Z,4.20
2023-03-17T20:13:22.599Z,4.10
2023-03-17T20:20:51.221Z,4.40
2023-03-17T20:28:13.105Z,4.10
2023-03-17T20:30:40.727Z,3.70
2023-03-17T20:33:09.861Z,3.90
2023-03-17T20:35:39.444Z,3.90
2023-03-17T20:38:07.492Z,4.00
2023-03-17T21:00:20.512Z,3.70
2023-03-17T21:02:50.233Z,3.70
2023-03-17T21:05:20.734Z,3.60
2023-03-17T21:07:49.078Z,3.80
2023-03-17T21:10:17.434Z,3.60
2023-03-17T21:12:45.022Z,3.70
2023-03-17T21:15:13.014Z,3.90
2023-03-17T21:20:12.086Z,3.90
2023-03-17T21:25:08.920Z,3.50
2023-03-17T21:27:40.372Z,3.60
2023-03-17T21:30:12.076Z,3.40
2023-03-17T21:35:08.027Z,3.80
2023-03-17T21:37:35.279Z,3.60
2023-03-17T21:54:47.869Z,3.50
2023-03-17T21:57:14.710Z,3.40
2023-03-17T21:59:42.347Z,3.10
2023-03-17T22:02:12.467Z,3.10
2023-03-17T22:04:39.744Z,2.90
2023-03-17T22:12:01.793Z,2.70
2023-03-17T22:16:57.216Z,3.30
2023-03-17T22:26:49.604Z,3.30
2023-03-17T22:31:43.788Z,3.20
2023-03-17T22:34:10.826Z,3.20
2023-03-17T22:36:38.004Z,3.10
2023-03-17T22:39:06.961Z,3.20
2023-03-17T22:44:01.108Z,3.10
2023-03-17T22:48:55.474Z,3.10
2023-03-17T22:51:27.010Z,2.90
2023-03-17T22:53:54.294Z,3.10
2023-03-17T22:56:21.572Z,2.90
2023-03-17T23:01:17.217Z,3.10
2023-03-17T23:03:44.911Z,3.00
2023-03-17T23:06:13.268Z,3.00
2023-03-17T23:08:42.783Z,3.00
2023-03-17T23:11:23.171Z,2.90
2023-03-17T23:13:51.399Z,2.90
2023-03-17T23:16:19.034Z,3.10
2023-03-17T23:18:47.145Z,3.40
2023-03-17T23:21:33.038Z,2.90
2023-03-17T23:24:00.723Z,3.30
2023-03-17T23:33:51.298Z,2.90
2023-03-17T23:36:21.996Z,2.70
2023-03-17T23:56:11.446Z,2.80
